sensor_id;sensor_type;location;lat;lon;timestamp;P1;durP1;ratioP1;P2;durP2;ratioP2
76357;SDS011;65185;21.060;105.826;2023-07-09T00:01:53;8.23;;;3.13;;
76357;SDS011;65185;21.060;105.826;2023-07-09T00:04:20;11.23;;;3.70;;
76357;SDS011;65185;21.060;105.826;2023-07-09T00:06:46;17.77;;;3.38;;
76357;SDS011;65185;21.060;105.826;2023-07-09T00:09:14;11.00;;;3.60;;
76357;SDS011;65185;21.060;105.826;2023-07-09T00:11:42;7.47;;;3.25;;
76357;SDS011;65185;21.060;105.826;2023-07-09T00:14:10;8.48;;;3.50;;
76357;SDS011;65185;21.060;105.826;2023-07-09T00:16:38;7.03;;;3.50;;
76357;SDS011;65185;21.060;105.826;2023-07-09T00:19:11;7.13;;;3.60;;
76357;SDS011;65185;21.060;105.826;2023-07-09T00:21:41;8.23;;;3.65;;
76357;SDS011;65185;21.060;105.826;2023-07-09T00:24:13;11.82;;;3.58;;
76357;SDS011;65185;21.060;105.826;2023-07-09T00:26:40;9.15;;;3.65;;
76357;SDS011;65185;21.060;105.826;2023-07-09T00:29:08;11.70;;;4.47;;
76357;SDS011;65185;21.060;105.826;2023-07-09T00:31:36;9.48;;;4.10;;
76357;SDS011;65185;21.060;105.826;2023-07-09T00:34:10;10.27;;;4.28;;
76357;SDS011;65185;21.060;105.826;2023-07-09T00:36:40;8.73;;;4.13;;
76357;SDS011;65185;21.060;105.826;2023-07-09T00:39:14;11.38;;;4.32;;
76357;SDS011;65185;21.060;105.826;2023-07-09T00:41:43;10.00;;;4.22;;
76357;SDS011;65185;21.060;105.826;2023-07-09T00:49:13;9.48;;;3.90;;
76357;SDS011;65185;21.060;105.826;2023-07-09T00:51:43;10.93;;;3.88;;
76357;SDS011;65185;21.060;105.826;2023-07-09T00:54:31;9.20;;;3.63;;
76357;SDS011;65185;21.060;105.826;2023-07-09T00:57:13;9.90;;;4.07;;
76357;SDS011;65185;21.060;105.826;2023-07-09T00:59:45;8.75;;;3.83;;
76357;SDS011;65185;21.060;105.826;2023-07-09T01:02:17;11.57;;;3.95;;
76357;SDS011;65185;21.060;105.826;2023-07-09T01:04:48;9.88;;;3.25;;
76357;SDS011;65185;21.060;105.826;2023-07-09T01:07:17;9.30;;;3.80;;
76357;SDS011;65185;21.060;105.826;2023-07-09T01:09:45;9.05;;;3.20;;
76357;SDS011;65185;21.060;105.826;2023-07-09T01:12:12;8.75;;;3.45;;
76357;SDS011;65185;21.060;105.826;2023-07-09T01:14:41;9.48;;;3.65;;
76357;SDS011;65185;21.060;105.826;2023-07-09T01:17:08;13.00;;;3.72;;
76357;SDS011;65185;21.060;105.826;2023-07-09T01:19:40;9.00;;;3.30;;
76357;SDS011;65185;21.060;105.826;2023-07-09T01:22:13;8.48;;;3.42;;
76357;SDS011;65185;21.060;105.826;2023-07-09T01:27:16;7.32;;;3.38;;
76357;SDS011;65185;21.060;105.826;2023-07-09T01:29:45;8.48;;;3.42;;
76357;SDS011;65185;21.060;105.826;2023-07-09T01:32:17;8.68;;;3.45;;
76357;SDS011;65185;21.060;105.826;2023-07-09T01:34:45;9.82;;;3.55;;
76357;SDS011;65185;21.060;105.826;2023-07-09T01:37:14;8.35;;;3.50;;
76357;SDS011;65185;21.060;105.826;2023-07-09T01:39:47;9.93;;;3.30;;
76357;SDS011;65185;21.060;105.826;2023-07-09T01:42:15;12.63;;;3.70;;
76357;SDS011;65185;21.060;105.826;2023-07-09T01:44:43;10.35;;;3.78;;
76357;SDS011;65185;21.060;105.826;2023-07-09T01:47:11;12.88;;;4.43;;
76357;SDS011;65185;21.060;105.826;2023-07-09T01:49:38;10.85;;;3.88;;
76357;SDS011;65185;21.060;105.826;2023-07-09T01:52:05;12.10;;;4.85;;
76357;SDS011;65185;21.060;105.826;2023-07-09T01:54:37;12.63;;;4.20;;
76357;SDS011;65185;21.060;105.826;2023-07-09T01:59:57;14.52;;;5.53;;
76357;SDS011;65185;21.060;105.826;2023-07-09T02:02:25;13.32;;;4.72;;
76357;SDS011;65185;21.060;105.826;2023-07-09T02:04:55;13.93;;;4.90;;
76357;SDS011;65185;21.060;105.826;2023-07-09T02:07:23;12.98;;;4.68;;
76357;SDS011;65185;21.060;105.826;2023-07-09T02:09:50;14.55;;;4.70;;
76357;SDS011;65185;21.060;105.826;2023-07-09T02:12:17;14.23;;;5.15;;
76357;SDS011;65185;21.060;105.826;2023-07-09T02:14:45;16.10;;;4.53;;
76357;SDS011;65185;21.060;105.826;2023-07-09T02:17:12;14.82;;;5.00;;
76357;SDS011;65185;21.060;105.826;2023-07-09T02:19:40;13.50;;;4.30;;
76357;SDS011;65185;21.060;105.826;2023-07-09T02:22:07;12.32;;;4.75;;
76357;SDS011;65185;21.060;105.826;2023-07-09T02:24:34;12.82;;;4.38;;
76357;SDS011;65185;21.060;105.826;2023-07-09T02:27:02;12.55;;;4.63;;
76357;SDS011;65185;21.060;105.826;2023-07-09T02:29:30;10.43;;;3.90;;
76357;SDS011;65185;21.060;105.826;2023-07-09T02:31:58;10.85;;;4.13;;
76357;SDS011;65185;21.060;105.826;2023-07-09T02:34:26;10.95;;;4.50;;
76357;SDS011;65185;21.060;105.826;2023-07-09T02:36:54;14.80;;;5.22;;
76357;SDS011;65185;21.060;105.826;2023-07-09T02:39:22;11.77;;;4.78;;
76357;SDS011;65185;21.060;105.826;2023-07-09T02:41:49;11.32;;;4.35;;
76357;SDS011;65185;21.060;105.826;2023-07-09T02:44:16;13.25;;;4.13;;
76357;SDS011;65185;21.060;105.826;2023-07-09T02:46:43;9.77;;;3.97;;
76357;SDS011;65185;21.060;105.826;2023-07-09T02:49:10;10.55;;;3.95;;
76357;SDS011;65185;21.060;105.826;2023-07-09T02:51:38;8.35;;;3.67;;
76357;SDS011;65185;21.060;105.826;2023-07-09T02:54:05;9.52;;;3.67;;
76357;SDS011;65185;21.060;105.826;2023-07-09T02:56:32;11.25;;;3.60;;
76357;SDS011;65185;21.060;105.826;2023-07-09T02:58:59;10.50;;;4.32;;
76357;SDS011;65185;21.060;105.826;2023-07-09T03:01:25;9.77;;;4.55;;
76357;SDS011;65185;21.060;105.826;2023-07-09T03:03:55;14.32;;;4.93;;
76357;SDS011;65185;21.060;105.826;2023-07-09T03:06:25;12.82;;;4.80;;
76357;SDS011;65185;21.060;105.826;2023-07-09T03:08:52;12.93;;;4.68;;
76357;SDS011;65185;21.060;105.826;2023-07-09T03:11:19;13.10;;;4.38;;
76357;SDS011;65185;21.060;105.826;2023-07-09T03:13:46;12.40;;;4.55;;
76357;SDS011;65185;21.060;105.826;2023-07-09T03:16:14;11.45;;;3.70;;
76357;SDS011;65185;21.060;105.826;2023-07-09T03:18:41;11.10;;;4.60;;
76357;SDS011;65185;21.060;105.826;2023-07-09T03:21:08;11.75;;;4.93;;
76357;SDS011;65185;21.060;105.826;2023-07-09T03:23:34;12.13;;;4.07;;
76357;SDS011;65185;21.060;105.826;2023-07-09T03:26:00;12.63;;;4.72;;
76357;SDS011;65185;21.060;105.826;2023-07-09T03:28:28;10.60;;;4.55;;
76357;SDS011;65185;21.060;105.826;2023-07-09T03:30:56;10.88;;;4.85;;
76357;SDS011;65185;21.060;105.826;2023-07-09T03:33:23;13.68;;;5.05;;
76357;SDS011;65185;21.060;105.826;2023-07-09T03:35:50;12.63;;;4.68;;
76357;SDS011;65185;21.060;105.826;2023-07-09T03:38:17;14.25;;;4.30;;
76357;SDS011;65185;21.060;105.826;2023-07-09T03:40:44;12.15;;;5.00;;
76357;SDS011;65185;21.060;105.826;2023-07-09T03:43:11;15.43;;;5.55;;
76357;SDS011;65185;21.060;105.826;2023-07-09T03:45:38;9.98;;;4.50;;
76357;SDS011;65185;21.060;105.826;2023-07-09T03:48:04;11.45;;;4.90;;
76357;SDS011;65185;21.060;105.826;2023-07-09T03:50:32;14.43;;;5.15;;
76357;SDS011;65185;21.060;105.826;2023-07-09T03:52:58;11.07;;;5.28;;
76357;SDS011;65185;21.060;105.826;2023-07-09T03:55:25;11.15;;;5.13;;
76357;SDS011;65185;21.060;105.826;2023-07-09T03:57:53;11.60;;;4.80;;
76357;SDS011;65185;21.060;105.826;2023-07-09T04:00:20;13.68;;;4.57;;
76357;SDS011;65185;21.060;105.826;2023-07-09T04:02:47;11.32;;;4.78;;
76357;SDS011;65185;21.060;105.826;2023-07-09T04:05:14;12.07;;;4.75;;
76357;SDS011;65185;21.060;105.826;2023-07-09T04:07:41;12.98;;;5.25;;
76357;SDS011;65185;21.060;105.826;2023-07-09T04:10:07;10.52;;;4.93;;
76357;SDS011;65185;21.060;105.826;2023-07-09T04:12:34;12.02;;;5.13;;
76357;SDS011;65185;21.060;105.826;2023-07-09T04:15:02;13.70;;;5.60;;
76357;SDS011;65185;21.060;105.826;2023-07-09T04:17:31;13.10;;;5.55;;
76357;SDS011;65185;21.060;105.826;2023-07-09T04:19:58;12.70;;;5.47;;
76357;SDS011;65185;21.060;105.826;2023-07-09T04:22:24;10.98;;;5.15;;
76357;SDS011;65185;21.060;105.826;2023-07-09T04:24:51;12.38;;;4.95;;
76357;SDS011;65185;21.060;105.826;2023-07-09T04:27:18;11.75;;;5.03;;
76357;SDS011;65185;21.060;105.826;2023-07-09T04:29:44;12.50;;;5.10;;
76357;SDS011;65185;21.060;105.826;2023-07-09T04:32:12;10.63;;;5.45;;
76357;SDS011;65185;21.060;105.826;2023-07-09T04:34:40;11.85;;;5.35;;
76357;SDS011;65185;21.060;105.826;2023-07-09T04:37:07;11.20;;;5.53;;
76357;SDS011;65185;21.060;105.826;2023-07-09T04:39:35;14.50;;;5.70;;
76357;SDS011;65185;21.060;105.826;2023-07-09T04:42:02;10.55;;;5.50;;
76357;SDS011;65185;21.060;105.826;2023-07-09T04:44:28;11.85;;;5.70;;
76357;SDS011;65185;21.060;105.826;2023-07-09T04:46:55;12.20;;;5.97;;
76357;SDS011;65185;21.060;105.826;2023-07-09T04:49:21;12.88;;;6.28;;
76357;SDS011;65185;21.060;105.826;2023-07-09T04:51:48;12.20;;;5.20;;
76357;SDS011;65185;21.060;105.826;2023-07-09T04:54:14;11.30;;;5.78;;
76357;SDS011;65185;21.060;105.826;2023-07-09T04:56:41;13.07;;;5.93;;
76357;SDS011;65185;21.060;105.826;2023-07-09T04:59:11;11.43;;;5.50;;
76357;SDS011;65185;21.060;105.826;2023-07-09T05:01:38;12.20;;;5.30;;
76357;SDS011;65185;21.060;105.826;2023-07-09T05:04:04;10.52;;;5.68;;
76357;SDS011;65185;21.060;105.826;2023-07-09T05:06:32;11.15;;;5.57;;
76357;SDS011;65185;21.060;105.826;2023-07-09T05:08:59;11.68;;;5.57;;
76357;SDS011;65185;21.060;105.826;2023-07-09T05:11:25;13.55;;;5.93;;
76357;SDS011;65185;21.060;105.826;2023-07-09T05:13:52;9.95;;;5.22;;
76357;SDS011;65185;21.060;105.826;2023-07-09T05:16:19;9.98;;;5.35;;
76357;SDS011;65185;21.060;105.826;2023-07-09T05:18:46;10.60;;;5.53;;
76357;SDS011;65185;21.060;105.826;2023-07-09T05:21:12;12.25;;;5.85;;
76357;SDS011;65185;21.060;105.826;2023-07-09T05:23:39;10.82;;;5.45;;
76357;SDS011;65185;21.060;105.826;2023-07-09T05:26:05;16.20;;;6.88;;
76357;SDS011;65185;21.060;105.826;2023-07-09T05:28:32;16.50;;;6.82;;
76357;SDS011;65185;21.060;105.826;2023-07-09T05:30:58;10.75;;;5.72;;
76357;SDS011;65185;21.060;105.826;2023-07-09T05:33:25;12.75;;;5.68;;
76357;SDS011;65185;21.060;105.826;2023-07-09T05:35:51;11.55;;;5.93;;
76357;SDS011;65185;21.060;105.826;2023-07-09T05:38:18;11.00;;;5.25;;
76357;SDS011;65185;21.060;105.826;2023-07-09T05:40:44;9.93;;;5.55;;
76357;SDS011;65185;21.060;105.826;2023-07-09T05:43:11;10.82;;;5.88;;
76357;SDS011;65185;21.060;105.826;2023-07-09T05:45:38;13.30;;;6.78;;
76357;SDS011;65185;21.060;105.826;2023-07-09T05:48:05;11.15;;;6.00;;
76357;SDS011;65185;21.060;105.826;2023-07-09T05:50:32;11.30;;;5.80;;
76357;SDS011;65185;21.060;105.826;2023-07-09T05:53:01;11.32;;;5.95;;
76357;SDS011;65185;21.060;105.826;2023-07-09T05:55:27;13.68;;;6.25;;
76357;SDS011;65185;21.060;105.826;2023-07-09T05:57:54;12.57;;;6.50;;
76357;SDS011;65185;21.060;105.826;2023-07-09T06:00:20;13.48;;;6.38;;
76357;SDS011;65185;21.060;105.826;2023-07-09T06:02:47;13.32;;;6.72;;
76357;SDS011;65185;21.060;105.826;2023-07-09T06:05:13;12.95;;;6.88;;
76357;SDS011;65185;21.060;105.826;2023-07-09T06:07:40;14.98;;;6.75;;
76357;SDS011;65185;21.060;105.826;2023-07-09T06:10:07;12.05;;;6.90;;
76357;SDS011;65185;21.060;105.826;2023-07-09T06:12:35;13.20;;;6.78;;
76357;SDS011;65185;21.060;105.826;2023-07-09T06:15:01;11.90;;;6.45;;
76357;SDS011;65185;21.060;105.826;2023-07-09T06:17:28;12.25;;;6.50;;
76357;SDS011;65185;21.060;105.826;2023-07-09T06:19:55;13.10;;;6.35;;
76357;SDS011;65185;21.060;105.826;2023-07-09T06:22:21;14.25;;;6.72;;
76357;SDS011;65185;21.060;105.826;2023-07-09T06:24:48;15.32;;;7.43;;
76357;SDS011;65185;21.060;105.826;2023-07-09T06:27:14;14.98;;;6.75;;
76357;SDS011;65185;21.060;105.826;2023-07-09T06:29:40;14.90;;;7.22;;
76357;SDS011;65185;21.060;105.826;2023-07-09T06:32:07;18.70;;;7.55;;
76357;SDS011;65185;21.060;105.826;2023-07-09T06:34:33;12.57;;;6.30;;
76357;SDS011;65185;21.060;105.826;2023-07-09T06:37:00;13.48;;;6.90;;
76357;SDS011;65185;21.060;105.826;2023-07-09T06:39:26;15.40;;;6.80;;
76357;SDS011;65185;21.060;105.826;2023-07-09T06:41:53;14.88;;;7.30;;
76357;SDS011;65185;21.060;105.826;2023-07-09T06:44:19;14.10;;;7.45;;
76357;SDS011;65185;21.060;105.826;2023-07-09T06:46:46;12.63;;;6.95;;
76357;SDS011;65185;21.060;105.826;2023-07-09T06:49:16;12.05;;;6.55;;
76357;SDS011;65185;21.060;105.826;2023-07-09T06:51:42;13.15;;;7.00;;
76357;SDS011;65185;21.060;105.826;2023-07-09T06:54:11;15.27;;;6.63;;
76357;SDS011;65185;21.060;105.826;2023-07-09T06:56:41;13.75;;;6.55;;
76357;SDS011;65185;21.060;105.826;2023-07-09T06:59:07;13.57;;;6.85;;
76357;SDS011;65185;21.060;105.826;2023-07-09T07:01:35;14.32;;;7.35;;
76357;SDS011;65185;21.060;105.826;2023-07-09T07:04:01;17.58;;;7.47;;
76357;SDS011;65185;21.060;105.826;2023-07-09T07:06:28;13.38;;;7.03;;
76357;SDS011;65185;21.060;105.826;2023-07-09T07:08:56;14.85;;;7.00;;
76357;SDS011;65185;21.060;105.826;2023-07-09T07:11:22;14.82;;;7.50;;
76357;SDS011;65185;21.060;105.826;2023-07-09T07:13:50;15.35;;;8.25;;
76357;SDS011;65185;21.060;105.826;2023-07-09T07:16:17;16.98;;;7.25;;
76357;SDS011;65185;21.060;105.826;2023-07-09T07:18:44;13.70;;;7.65;;
76357;SDS011;65185;21.060;105.826;2023-07-09T07:21:10;16.15;;;7.75;;
76357;SDS011;65185;21.060;105.826;2023-07-09T07:23:37;16.55;;;8.63;;
76357;SDS011;65185;21.060;105.826;2023-07-09T07:26:12;16.20;;;8.13;;
76357;SDS011;65185;21.060;105.826;2023-07-09T07:28:38;16.27;;;7.60;;
76357;SDS011;65185;21.060;105.826;2023-07-09T07:31:07;17.27;;;8.02;;
76357;SDS011;65185;21.060;105.826;2023-07-09T07:33:35;13.75;;;8.43;;
76357;SDS011;65185;21.060;105.826;2023-07-09T07:36:05;17.33;;;8.32;;
76357;SDS011;65185;21.060;105.826;2023-07-09T07:38:31;16.35;;;8.70;;
76357;SDS011;65185;21.060;105.826;2023-07-09T07:40:58;15.13;;;7.82;;
76357;SDS011;65185;21.060;105.826;2023-07-09T07:43:24;14.68;;;7.53;;
76357;SDS011;65185;21.060;105.826;2023-07-09T07:45:51;14.88;;;8.20;;
76357;SDS011;65185;21.060;105.826;2023-07-09T07:48:17;17.45;;;8.95;;
76357;SDS011;65185;21.060;105.826;2023-07-09T07:50:44;15.70;;;8.55;;
76357;SDS011;65185;21.060;105.826;2023-07-09T07:53:13;19.00;;;8.90;;
76357;SDS011;65185;21.060;105.826;2023-07-09T07:55:41;20.23;;;9.48;;
76357;SDS011;65185;21.060;105.826;2023-07-09T07:58:11;14.68;;;8.52;;
76357;SDS011;65185;21.060;105.826;2023-07-09T08:00:38;18.75;;;9.25;;
76357;SDS011;65185;21.060;105.826;2023-07-09T08:03:05;15.88;;;9.02;;
76357;SDS011;65185;21.060;105.826;2023-07-09T08:05:32;19.55;;;9.52;;
76357;SDS011;65185;21.060;105.826;2023-07-09T08:07:59;19.52;;;9.27;;
76357;SDS011;65185;21.060;105.826;2023-07-09T08:10:25;17.23;;;8.60;;
76357;SDS011;65185;21.060;105.826;2023-07-09T08:12:51;26.33;;;10.82;;
76357;SDS011;65185;21.060;105.826;2023-07-09T08:15:22;19.70;;;10.15;;
76357;SDS011;65185;21.060;105.826;2023-07-09T08:17:49;19.02;;;10.00;;
76357;SDS011;65185;21.060;105.826;2023-07-09T08:20:16;18.95;;;10.23;;
76357;SDS011;65185;21.060;105.826;2023-07-09T08:22:43;22.05;;;10.95;;
76357;SDS011;65185;21.060;105.826;2023-07-09T08:25:09;20.45;;;11.68;;
76357;SDS011;65185;21.060;105.826;2023-07-09T08:27:36;19.83;;;11.23;;
76357;SDS011;65185;21.060;105.826;2023-07-09T08:30:02;22.80;;;11.60;;
76357;SDS011;65185;21.060;105.826;2023-07-09T08:32:29;24.70;;;12.02;;
76357;SDS011;65185;21.060;105.826;2023-07-09T08:34:56;26.48;;;12.07;;
76357;SDS011;65185;21.060;105.826;2023-07-09T08:37:22;23.10;;;11.98;;
76357;SDS011;65185;21.060;105.826;2023-07-09T08:39:49;20.75;;;12.93;;
76357;SDS011;65185;21.060;105.826;2023-07-09T08:42:17;25.17;;;12.13;;
76357;SDS011;65185;21.060;105.826;2023-07-09T08:47:51;21.63;;;12.05;;
76357;SDS011;65185;21.060;105.826;2023-07-09T08:50:38;20.83;;;11.77;;
76357;SDS011;65185;21.060;105.826;2023-07-09T08:53:13;21.30;;;11.63;;
76357;SDS011;65185;21.060;105.826;2023-07-09T08:55:47;24.35;;;11.35;;
76357;SDS011;65185;21.060;105.826;2023-07-09T08:58:25;17.35;;;11.05;;
76357;SDS011;65185;21.060;105.826;2023-07-09T09:00:59;21.30;;;11.35;;
76357;SDS011;65185;21.060;105.826;2023-07-09T09:03:37;20.02;;;12.60;;
76357;SDS011;65185;21.060;105.826;2023-07-09T09:06:13;22.75;;;12.80;;
76357;SDS011;65185;21.060;105.826;2023-07-09T09:08:52;24.50;;;12.88;;
76357;SDS011;65185;21.060;105.826;2023-07-09T09:11:43;26.30;;;14.00;;
76357;SDS011;65185;21.060;105.826;2023-07-09T09:14:33;23.33;;;15.05;;
76357;SDS011;65185;21.060;105.826;2023-07-09T09:17:03;24.02;;;14.63;;
76357;SDS011;65185;21.060;105.826;2023-07-09T09:22:17;22.40;;;13.98;;
76357;SDS011;65185;21.060;105.826;2023-07-09T09:25:11;21.05;;;13.70;;
76357;SDS011;65185;21.060;105.826;2023-07-09T09:28:03;22.15;;;14.45;;
76357;SDS011;65185;21.060;105.826;2023-07-09T09:30:30;23.83;;;13.63;;
76357;SDS011;65185;21.060;105.826;2023-07-09T09:33:00;22.73;;;14.32;;
76357;SDS011;65185;21.060;105.826;2023-07-09T09:35:35;20.02;;;13.02;;
76357;SDS011;65185;21.060;105.826;2023-07-09T09:38:17;22.45;;;14.07;;
76357;SDS011;65185;21.060;105.826;2023-07-09T09:40:47;20.85;;;13.85;;
76357;SDS011;65185;21.060;105.826;2023-07-09T09:43:15;24.83;;;15.60;;
76357;SDS011;65185;21.060;105.826;2023-07-09T09:45:45;21.45;;;13.93;;
76357;SDS011;65185;21.060;105.826;2023-07-09T09:48:15;27.00;;;15.60;;
76357;SDS011;65185;21.060;105.826;2023-07-09T09:50:46;28.38;;;16.13;;
76357;SDS011;65185;21.060;105.826;2023-07-09T09:53:18;24.42;;;16.13;;
76357;SDS011;65185;21.060;105.826;2023-07-09T09:55:51;20.75;;;15.68;;
76357;SDS011;65185;21.060;105.826;2023-07-09T09:58:19;31.15;;;16.40;;
76357;SDS011;65185;21.060;105.826;2023-07-09T10:00:51;25.33;;;15.57;;
76357;SDS011;65185;21.060;105.826;2023-07-09T10:03:18;33.67;;;18.75;;
76357;SDS011;65185;21.060;105.826;2023-07-09T10:11:34;22.27;;;15.52;;
76357;SDS011;65185;21.060;105.826;2023-07-09T10:14:17;26.52;;;16.10;;
76357;SDS011;65185;21.060;105.826;2023-07-09T10:17:51;30.92;;;16.33;;
76357;SDS011;65185;21.060;105.826;2023-07-09T10:20:17;30.38;;;15.80;;
76357;SDS011;65185;21.060;105.826;2023-07-09T10:34:00;28.40;;;16.95;;
76357;SDS011;65185;21.060;105.826;2023-07-09T10:36:57;32.47;;;16.75;;
76357;SDS011;65185;21.060;105.826;2023-07-09T10:39:46;28.85;;;16.58;;
76357;SDS011;65185;21.060;105.826;2023-07-09T10:42:22;35.78;;;23.00;;
76357;SDS011;65185;21.060;105.826;2023-07-09T10:44:57;33.85;;;20.55;;
76357;SDS011;65185;21.060;105.826;2023-07-09T10:47:37;34.03;;;18.40;;
76357;SDS011;65185;21.060;105.826;2023-07-09T10:50:41;39.00;;;21.27;;
76357;SDS011;65185;21.060;105.826;2023-07-09T10:56:12;29.35;;;16.52;;
76357;SDS011;65185;21.060;105.826;2023-07-09T11:01:19;32.17;;;16.85;;
76357;SDS011;65185;21.060;105.826;2023-07-09T11:04:03;37.22;;;19.30;;
76357;SDS011;65185;21.060;105.826;2023-07-09T11:06:36;30.25;;;18.67;;
76357;SDS011;65185;21.060;105.826;2023-07-09T11:09:15;32.53;;;18.13;;
76357;SDS011;65185;21.060;105.826;2023-07-09T11:11:59;28.90;;;18.02;;
76357;SDS011;65185;21.060;105.826;2023-07-09T11:14:32;32.65;;;19.63;;
76357;SDS011;65185;21.060;105.826;2023-07-09T11:17:07;31.38;;;19.48;;
76357;SDS011;65185;21.060;105.826;2023-07-09T11:19:47;34.08;;;19.70;;
76357;SDS011;65185;21.060;105.826;2023-07-09T11:22:23;33.15;;;19.67;;
76357;SDS011;65185;21.060;105.826;2023-07-09T11:24:51;31.65;;;19.23;;
76357;SDS011;65185;21.060;105.826;2023-07-09T11:27:18;33.70;;;19.60;;
76357;SDS011;65185;21.060;105.826;2023-07-09T11:30:44;32.92;;;19.40;;
76357;SDS011;65185;21.060;105.826;2023-07-09T11:33:01;26.83;;;18.83;;
76357;SDS011;65185;21.060;105.826;2023-07-09T11:35:49;30.95;;;18.13;;
76357;SDS011;65185;21.060;105.826;2023-07-09T11:38:18;26.88;;;17.65;;
76357;SDS011;65185;21.060;105.826;2023-07-09T11:40:51;27.08;;;17.55;;
76357;SDS011;65185;21.060;105.826;2023-07-09T11:43:26;34.53;;;20.05;;
76357;SDS011;65185;21.060;105.826;2023-07-09T11:48:26;29.50;;;18.80;;
76357;SDS011;65185;21.060;105.826;2023-07-09T11:50:55;31.27;;;18.98;;
76357;SDS011;65185;21.060;105.826;2023-07-09T11:56:18;35.45;;;23.38;;
76357;SDS011;65185;21.060;105.826;2023-07-09T11:58:52;40.50;;;25.02;;
76357;SDS011;65185;21.060;105.826;2023-07-09T12:01:36;38.00;;;25.73;;
76357;SDS011;65185;21.060;105.826;2023-07-09T12:04:12;35.53;;;22.08;;
76357;SDS011;65185;21.060;105.826;2023-07-09T12:06:40;33.08;;;20.88;;
76357;SDS011;65185;21.060;105.826;2023-07-09T12:09:11;31.85;;;19.92;;
76357;SDS011;65185;21.060;105.826;2023-07-09T12:11:45;31.08;;;19.48;;
76357;SDS011;65185;21.060;105.826;2023-07-09T12:14:17;29.88;;;20.48;;
76357;SDS011;65185;21.060;105.826;2023-07-09T12:16:46;34.70;;;21.92;;
76357;SDS011;65185;21.060;105.826;2023-07-09T12:19:17;27.25;;;19.98;;
76357;SDS011;65185;21.060;105.826;2023-07-09T12:21:46;33.05;;;20.42;;
76357;SDS011;65185;21.060;105.826;2023-07-09T12:24:35;34.35;;;21.75;;
76357;SDS011;65185;21.060;105.826;2023-07-09T12:27:14;30.48;;;20.20;;
76357;SDS011;65185;21.060;105.826;2023-07-09T12:29:48;39.45;;;22.65;;
76357;SDS011;65185;21.060;105.826;2023-07-09T12:32:18;33.53;;;21.05;;
76357;SDS011;65185;21.060;105.826;2023-07-09T12:34:51;39.97;;;22.63;;
76357;SDS011;65185;21.060;105.826;2023-07-09T12:37:19;32.28;;;20.45;;
76357;SDS011;65185;21.060;105.826;2023-07-09T12:39:50;38.45;;;21.77;;
76357;SDS011;65185;21.060;105.826;2023-07-09T12:42:19;33.45;;;20.25;;
76357;SDS011;65185;21.060;105.826;2023-07-09T12:44:50;41.78;;;24.38;;
76357;SDS011;65185;21.060;105.826;2023-07-09T12:47:19;37.55;;;20.65;;
76357;SDS011;65185;21.060;105.826;2023-07-09T12:49:49;37.20;;;22.80;;
76357;SDS011;65185;21.060;105.826;2023-07-09T12:52:18;39.05;;;22.80;;
76357;SDS011;65185;21.060;105.826;2023-07-09T12:54:56;33.63;;;22.15;;
76357;SDS011;65185;21.060;105.826;2023-07-09T12:57:25;38.15;;;24.00;;
76357;SDS011;65185;21.060;105.826;2023-07-09T12:59:53;39.55;;;22.10;;
76357;SDS011;65185;21.060;105.826;2023-07-09T13:02:22;39.30;;;21.95;;
76357;SDS011;65185;21.060;105.826;2023-07-09T13:04:57;39.67;;;22.17;;
76357;SDS011;65185;21.060;105.826;2023-07-09T13:07:30;37.90;;;21.48;;
76357;SDS011;65185;21.060;105.826;2023-07-09T13:10:05;36.70;;;18.15;;
76357;SDS011;65185;21.060;105.826;2023-07-09T13:12:44;36.47;;;20.33;;
76357;SDS011;65185;21.060;105.826;2023-07-09T13:18:02;32.38;;;17.05;;
76357;SDS011;65185;21.060;105.826;2023-07-09T13:20:31;13.77;;;7.40;;
76357;SDS011;65185;21.060;105.826;2023-07-09T13:23:00;12.15;;;5.95;;
76357;SDS011;65185;21.060;105.826;2023-07-09T13:25:27;10.00;;;5.03;;
76357;SDS011;65185;21.060;105.826;2023-07-09T13:27:53;10.80;;;4.25;;
76357;SDS011;65185;21.060;105.826;2023-07-09T13:30:20;17.85;;;6.82;;
76357;SDS011;65185;21.060;105.826;2023-07-09T13:32:46;42.33;;;9.60;;
76357;SDS011;65185;21.060;105.826;2023-07-09T13:35:15;41.78;;;10.40;;
76357;SDS011;65185;21.060;105.826;2023-07-09T13:37:45;27.45;;;6.50;;
76357;SDS011;65185;21.060;105.826;2023-07-09T13:40:15;14.05;;;3.47;;
76357;SDS011;65185;21.060;105.826;2023-07-09T13:42:42;10.32;;;2.72;;
76357;SDS011;65185;21.060;105.826;2023-07-09T13:45:20;6.25;;;2.40;;
76357;SDS011;65185;21.060;105.826;2023-07-09T13:47:50;7.75;;;2.50;;
76357;SDS011;65185;21.060;105.826;2023-07-09T13:50:18;11.15;;;2.90;;
76357;SDS011;65185;21.060;105.826;2023-07-09T13:52:45;7.95;;;2.53;;
76357;SDS011;65185;21.060;105.826;2023-07-09T13:55:20;8.35;;;2.90;;
76357;SDS011;65185;21.060;105.826;2023-07-09T13:57:49;10.30;;;3.33;;
76357;SDS011;65185;21.060;105.826;2023-07-09T14:00:16;9.10;;;3.63;;
76357;SDS011;65185;21.060;105.826;2023-07-09T14:02:43;10.43;;;3.53;;
76357;SDS011;65185;21.060;105.826;2023-07-09T14:05:12;7.75;;;3.35;;
76357;SDS011;65185;21.060;105.826;2023-07-09T14:07:40;8.68;;;4.05;;
76357;SDS011;65185;21.060;105.826;2023-07-09T14:10:17;10.00;;;4.40;;
76357;SDS011;65185;21.060;105.826;2023-07-09T14:12:44;9.55;;;4.25;;
76357;SDS011;65185;21.060;105.826;2023-07-09T14:15:17;11.63;;;5.00;;
76357;SDS011;65185;21.060;105.826;2023-07-09T14:17:46;10.30;;;5.07;;
76357;SDS011;65185;21.060;105.826;2023-07-09T14:20:14;11.63;;;5.65;;
76357;SDS011;65185;21.060;105.826;2023-07-09T14:22:42;13.57;;;6.45;;
76357;SDS011;65185;21.060;105.826;2023-07-09T14:25:15;12.70;;;7.28;;
76357;SDS011;65185;21.060;105.826;2023-07-09T14:27:46;13.27;;;8.32;;
76357;SDS011;65185;21.060;105.826;2023-07-09T14:30:14;13.82;;;8.60;;
76357;SDS011;65185;21.060;105.826;2023-07-09T14:32:46;16.30;;;10.95;;
76357;SDS011;65185;21.060;105.826;2023-07-09T14:35:23;15.45;;;10.57;;
76357;SDS011;65185;21.060;105.826;2023-07-09T14:37:52;21.08;;;12.88;;
76357;SDS011;65185;21.060;105.826;2023-07-09T14:40:24;26.00;;;14.35;;
76357;SDS011;65185;21.060;105.826;2023-07-09T14:42:51;23.08;;;15.75;;
76357;SDS011;65185;21.060;105.826;2023-07-09T14:45:21;27.15;;;16.58;;
76357;SDS011;65185;21.060;105.826;2023-07-09T14:47:50;28.55;;;18.20;;
76357;SDS011;65185;21.060;105.826;2023-07-09T14:50:20;25.33;;;17.45;;
76357;SDS011;65185;21.060;105.826;2023-07-09T14:52:48;24.65;;;17.15;;
76357;SDS011;65185;21.060;105.826;2023-07-09T14:55:19;27.23;;;18.50;;
76357;SDS011;65185;21.060;105.826;2023-07-09T14:57:47;26.25;;;17.63;;
76357;SDS011;65185;21.060;105.826;2023-07-09T15:00:18;22.95;;;16.48;;
76357;SDS011;65185;21.060;105.826;2023-07-09T15:02:47;25.60;;;17.75;;
76357;SDS011;65185;21.060;105.826;2023-07-09T15:05:18;27.08;;;18.25;;
76357;SDS011;65185;21.060;105.826;2023-07-09T15:07:46;33.63;;;20.40;;
76357;SDS011;65185;21.060;105.826;2023-07-09T15:10:17;37.47;;;22.35;;